createdAt,value
2023-01-26T00:00:21.363Z,20.69
2023-01-26T00:03:24.404Z,20.69
2023-01-26T00:06:27.600Z,20.69
2023-01-26T00:09:31.781Z,20.69
2023-01-26T00:12:34.696Z,20.69
2023-01-26T00:15:37.798Z,20.68
2023-01-26T00:18:41.691Z,20.69
2023-01-26T00:21:44.573Z,20.68
2023-01-26T00:24:48.890Z,20.69
2023-01-26T00:27:51.752Z,20.69
2023-01-26T00:30:54.618Z,20.69
2023-01-26T00:33:59.367Z,20.69
2023-01-26T00:37:02.226Z,20.70
2023-01-26T00:40:07.116Z,20.70
2023-01-26T00:43:09.946Z,20.70
2023-01-26T00:46:12.927Z,20.70
2023-01-26T00:49:15.705Z,20.70
2023-01-26T00:52:18.711Z,20.69
2023-01-26T00:55:22.947Z,20.69
2023-01-26T00:58:25.756Z,20.68
2023-01-26T01:01:28.637Z,20.68
2023-01-26T01:04:31.735Z,20.67
2023-01-26T01:07:36.581Z,20.67
2023-01-26T01:10:40.784Z,20.67
2023-01-26T01:13:44.222Z,20.68
2023-01-26T01:16:49.394Z,20.68
2023-01-26T01:19:52.270Z,20.68
2023-01-26T01:22:57.751Z,20.68
2023-01-26T01:26:03.544Z,20.69
2023-01-26T01:29:07.274Z,20.68
2023-01-26T01:32:10.366Z,20.68
2023-01-26T01:35:13.207Z,20.68
2023-01-26T01:38:16.074Z,20.67
2023-01-26T01:41:22.730Z,20.67
2023-01-26T01:44:27.339Z,20.68
2023-01-26T01:47:30.315Z,20.67
2023-01-26T01:50:38.763Z,20.68
2023-01-26T01:53:46.710Z,20.69
2023-01-26T01:56:55.404Z,20.69
2023-01-26T02:00:03.687Z,20.69
2023-01-26T02:03:19.201Z,20.68
2023-01-26T02:06:27.543Z,20.69
2023-01-26T02:09:52.963Z,20.70
2023-01-26T02:13:00.738Z,20.69
2023-01-26T02:16:04.631Z,20.69
2023-01-26T02:19:29.134Z,20.70
2023-01-26T02:22:42.590Z,20.70
2023-01-26T02:25:53.630Z,20.70
2023-01-26T02:28:58.342Z,20.70
2023-01-26T02:32:01.878Z,20.70
2023-01-26T02:35:05.186Z,20.71
2023-01-26T02:38:09.177Z,20.71
2023-01-26T02:41:35.464Z,20.71
2023-01-26T02:44:41.763Z,20.70
2023-01-26T02:47:45.304Z,20.71
2023-01-26T02:50:47.571Z,20.71
2023-01-26T02:53:51.114Z,20.70
2023-01-26T02:56:53.010Z,20.70
2023-01-26T02:59:57.129Z,20.71
2023-01-26T03:03:02.035Z,20.70
2023-01-26T03:06:06.906Z,20.71
2023-01-26T03:09:09.830Z,20.71
2023-01-26T03:12:13.172Z,20.71
2023-01-26T03:15:34.633Z,20.71
2023-01-26T03:18:55.348Z,20.71
2023-01-26T03:22:24.442Z,20.70
2023-01-26T03:25:50.351Z,20.70
2023-01-26T03:28:53.821Z,20.70
2023-01-26T03:31:59.292Z,20.70
2023-01-26T03:35:02.411Z,20.70
2023-01-26T03:38:06.149Z,20.69
2023-01-26T03:41:35.291Z,20.68
2023-01-26T03:44:55.794Z,20.68
2023-01-26T03:48:24.034Z,20.68
2023-01-26T03:51:44.381Z,20.69
2023-01-26T03:55:04.707Z,20.70
2023-01-26T03:58:08.557Z,20.72
2023-01-26T04:01:20.115Z,20.72
2023-01-26T04:04:45.040Z,20.74
2023-01-26T04:08:05.391Z,20.75
2023-01-26T04:11:08.318Z,20.76
2023-01-26T04:14:30.654Z,20.76
2023-01-26T04:17:54.568Z,20.77
2023-01-26T04:21:16.379Z,20.77
2023-01-26T04:24:22.453Z,20.77
2023-01-26T04:27:29.932Z,20.77
2023-01-26T04:30:32.938Z,20.77
2023-01-26T04:33:35.878Z,20.77
2023-01-26T04:36:40.512Z,20.75
2023-01-26T04:39:43.618Z,20.74
2023-01-26T04:42:46.482Z,20.75
2023-01-26T04:45:58.891Z,20.74
2023-01-26T04:49:02.141Z,20.73
2023-01-26T04:52:06.789Z,20.73
2023-01-26T04:55:10.946Z,20.72
2023-01-26T04:58:16.766Z,20.72
2023-01-26T05:01:20.117Z,20.72
2023-01-26T05:04:23.192Z,20.71
2023-01-26T05:07:27.527Z,20.72
2023-01-26T05:10:30.556Z,20.71
2023-01-26T05:13:51.976Z,20.71
2023-01-26T05:17:13.169Z,20.71
2023-01-26T05:20:33.158Z,20.70
2023-01-26T05:23:50.824Z,20.68
2023-01-26T05:27:28.809Z,20.67
2023-01-26T05:30:35.213Z,20.67
2023-01-26T05:33:39.116Z,20.66
2023-01-26T05:36:43.815Z,20.64
2023-01-26T05:39:48.217Z,20.64
2023-01-26T05:42:51.197Z,20.65
2023-01-26T05:45:58.554Z,20.65
2023-01-26T05:49:01.449Z,20.66
2023-01-26T05:52:04.302Z,20.65
2023-01-26T05:55:09.591Z,20.65
2023-01-26T05:58:12.505Z,20.64
2023-01-26T06:01:16.264Z,20.64
2023-01-26T06:04:26.441Z,20.65
2023-01-26T06:07:33.652Z,20.64
2023-01-26T06:10:46.306Z,20.65
2023-01-26T06:14:15.485Z,20.66
2023-01-26T06:17:19.547Z,20.68
2023-01-26T06:20:25.356Z,20.70
2023-01-26T06:23:33.567Z,20.71
2023-01-26T06:26:39.626Z,20.72
2023-01-26T06:29:42.809Z,20.74
2023-01-26T06:32:48.553Z,20.74
2023-01-26T06:35:52.344Z,20.74
2023-01-26T06:38:56.884Z,20.73
2023-01-26T06:42:01.349Z,20.74
2023-01-26T06:45:04.304Z,20.75
2023-01-26T06:48:07.172Z,20.75
2023-01-26T06:51:53.256Z,20.74
2023-01-26T06:55:00.324Z,20.76
2023-01-26T06:58:30.887Z,20.75
2023-01-26T07:01:52.481Z,20.75
2023-01-26T07:04:55.317Z,20.75
2023-01-26T07:08:00.401Z,20.74
2023-01-26T07:11:03.278Z,20.73
2023-01-26T07:14:07.605Z,20.73
2023-01-26T07:17:10.481Z,20.70
2023-01-26T07:20:13.758Z,20.64
2023-01-26T07:23:16.666Z,20.58
2023-01-26T07:26:19.921Z,20.56
2023-01-26T07:29:24.259Z,20.58
2023-01-26T07:32:27.174Z,20.70
2023-01-26T07:35:30.665Z,20.82
2023-01-26T07:38:34.042Z,20.95
2023-01-26T07:41:37.150Z,21.08
2023-01-26T07:45:01.381Z,21.20
2023-01-26T07:48:04.325Z,21.31
2023-01-26T07:51:09.180Z,21.41
2023-01-26T07:54:13.152Z,21.47
2023-01-26T07:57:16.061Z,21.49
2023-01-26T08:00:22.266Z,21.51
2023-01-26T08:03:25.540Z,21.52
2023-01-26T08:06:28.522Z,21.52
2023-01-26T08:09:31.554Z,21.53
2023-01-26T08:12:39.069Z,21.52
2023-01-26T08:15:45.141Z,21.51
2023-01-26T08:18:48.794Z,21.49
2023-01-26T08:21:51.870Z,21.45
2023-01-26T08:24:55.913Z,21.43
2023-01-26T08:27:58.785Z,21.38
2023-01-26T08:31:07.257Z,21.35
2023-01-26T08:34:10.076Z,21.31
2023-01-26T08:37:12.886Z,21.28
2023-01-26T08:40:16.634Z,21.24
2023-01-26T08:43:19.494Z,21.22
2023-01-26T08:46:23.725Z,21.20
2023-01-26T08:49:26.549Z,21.18
2023-01-26T08:52:29.423Z,21.17
2023-01-26T08:55:32.608Z,21.14
2023-01-26T08:58:36.031Z,21.14
2023-01-26T09:01:40.201Z,21.13
2023-01-26T09:04:43.007Z,21.11
2023-01-26T09:07:46.661Z,21.11
2023-01-26T09:10:49.520Z,21.08
2023-01-26T09:13:56.522Z,21.06
2023-01-26T09:17:00.778Z,21.05
2023-01-26T09:20:03.658Z,21.04
2023-01-26T09:23:06.629Z,21.04
2023-01-26T09:26:09.703Z,21.03
2023-01-26T09:29:12.510Z,21.00
2023-01-26T09:32:17.010Z,20.98
2023-01-26T09:35:20.002Z,20.97
2023-01-26T09:38:22.965Z,20.96
2023-01-26T09:41:50.409Z,20.97
2023-01-26T09:44:58.926Z,20.96
2023-01-26T09:48:20.136Z,20.96
2023-01-26T09:51:29.473Z,20.95
2023-01-26T09:54:36.647Z,20.95
2023-01-26T09:57:48.996Z,20.94
2023-01-26T10:00:55.482Z,20.94
2023-01-26T10:04:06.617Z,20.94
2023-01-26T10:07:12.509Z,20.93
2023-01-26T10:10:27.288Z,20.94
2023-01-26T10:13:31.404Z,20.95
2023-01-26T10:16:34.566Z,20.95
2023-01-26T10:19:43.467Z,20.96
2023-01-26T10:22:48.620Z,20.96
2023-01-26T10:25:54.157Z,20.95
2023-01-26T10:28:57.037Z,20.95
2023-01-26T10:32:00.000Z,20.95
2023-01-26T10:35:04.234Z,20.95
2023-01-26T10:38:28.100Z,20.94
2023-01-26T10:41:30.938Z,20.92
2023-01-26T10:44:35.792Z,20.91
2023-01-26T10:47:38.615Z,20.91
2023-01-26T10:50:42.923Z,20.90
2023-01-26T10:53:45.964Z,20.90
2023-01-26T10:56:51.481Z,20.90
2023-01-26T10:59:57.202Z,20.90
2023-01-26T11:03:07.890Z,20.89
2023-01-26T11:06:17.325Z,20.88
2023-01-26T11:09:24.296Z,20.87
2023-01-26T11:12:27.359Z,20.86
2023-01-26T11:15:37.425Z,20.86
2023-01-26T11:18:47.771Z,20.86
2023-01-26T11:21:56.619Z,20.85
2023-01-26T11:25:09.043Z,20.85
2023-01-26T11:28:32.132Z,20.84
2023-01-26T11:31:47.206Z,20.85
2023-01-26T11:35:02.930Z,20.84
2023-01-26T11:38:23.438Z,20.86
2023-01-26T11:41:38.672Z,20.85
2023-01-26T11:44:56.881Z,20.86
2023-01-26T11:48:13.890Z,20.85
2023-01-26T11:51:23.935Z,20.86
2023-01-26T11:54:51.774Z,20.85
2023-01-26T11:58:08.170Z,20.85
2023-01-26T12:01:15.634Z,20.84
2023-01-26T12:04:21.827Z,20.85
2023-01-26T12:07:30.718Z,20.84
2023-01-26T12:10:40.680Z,20.84
2023-01-26T12:13:49.918Z,20.84
2023-01-26T12:17:17.238Z,20.85
2023-01-26T12:20:29.949Z,20.84
2023-01-26T12:23:45.754Z,20.85
2023-01-26T12:26:54.282Z,20.85
2023-01-26T12:30:05.567Z,20.84
2023-01-26T12:33:10.779Z,20.85
2023-01-26T12:36:27.861Z,20.83
2023-01-26T12:39:37.430Z,20.84
2023-01-26T12:42:48.716Z,20.83
2023-01-26T12:45:55.586Z,20.83
2023-01-26T12:49:03.884Z,20.83
2023-01-26T12:52:13.279Z,20.84
2023-01-26T12:55:21.070Z,20.84
2023-01-26T12:58:28.854Z,20.84
2023-01-26T13:01:40.898Z,20.84
2023-01-26T13:04:46.138Z,20.84
2023-01-26T13:07:50.034Z,20.84
2023-01-26T13:10:52.952Z,20.83
2023-01-26T13:13:58.353Z,20.82
2023-01-26T13:17:34.378Z,20.82
2023-01-26T13:20:48.433Z,20.82
2023-01-26T13:23:52.690Z,20.83
2023-01-26T13:26:58.113Z,20.82
2023-01-26T13:30:03.035Z,20.82
2023-01-26T13:33:16.107Z,20.81
2023-01-26T13:36:21.625Z,20.82
2023-01-26T13:39:31.067Z,20.81
2023-01-26T13:42:38.795Z,20.81
2023-01-26T13:45:54.823Z,20.80
2023-01-26T13:48:58.210Z,20.79
2023-01-26T13:52:01.157Z,20.79
2023-01-26T13:55:05.643Z,20.78
2023-01-26T13:58:12.610Z,20.78
2023-01-26T14:01:18.434Z,20.78
2023-01-26T14:04:23.398Z,20.79
2023-01-26T14:07:29.330Z,20.79
2023-01-26T14:10:32.609Z,20.79
2023-01-26T14:13:38.187Z,20.81
2023-01-26T14:16:42.571Z,20.80
2023-01-26T14:19:45.448Z,20.80
2023-01-26T14:23:03.500Z,20.80
2023-01-26T14:26:13.399Z,20.79
2023-01-26T14:29:23.189Z,20.79
2023-01-26T14:32:29.829Z,20.81
2023-01-26T14:35:33.394Z,20.79
2023-01-26T14:38:43.961Z,20.79
2023-01-26T14:41:48.525Z,20.80
2023-01-26T14:44:51.414Z,20.80
2023-01-26T14:47:56.327Z,20.81
2023-01-26T14:51:00.103Z,20.82
2023-01-26T14:54:05.864Z,20.82
2023-01-26T14:57:09.653Z,20.82
2023-01-26T15:00:25.224Z,20.83
2023-01-26T15:03:33.771Z,20.83
2023-01-26T15:06:37.205Z,20.83
2023-01-26T15:09:40.123Z,20.83
2023-01-26T15:12:43.071Z,20.82
2023-01-26T15:15:48.844Z,20.82
2023-01-26T15:19:01.510Z,20.82
2023-01-26T15:22:04.390Z,20.83
2023-01-26T15:25:19.119Z,20.83
2023-01-26T15:28:25.826Z,20.84
2023-01-26T15:31:33.044Z,20.85
2023-01-26T15:34:38.745Z,20.86
2023-01-26T15:37:41.695Z,20.86
2023-01-26T15:40:44.557Z,20.86
2023-01-26T15:43:47.396Z,20.85
2023-01-26T15:46:50.293Z,20.84
2023-01-26T15:49:54.571Z,20.85
2023-01-26T15:52:57.681Z,20.85
2023-01-26T15:56:01.525Z,20.84
2023-01-26T15:59:04.379Z,20.83
2023-01-26T16:02:14.824Z,20.83
2023-01-26T16:05:21.128Z,20.84
2023-01-26T16:08:24.032Z,20.84
2023-01-26T16:11:31.389Z,20.83
2023-01-26T16:14:34.302Z,20.82
2023-01-26T16:17:37.142Z,20.82
2023-01-26T16:20:44.449Z,20.81
2023-01-26T16:23:48.418Z,20.80
2023-01-26T16:26:51.218Z,20.79
2023-01-26T16:29:54.011Z,20.80
2023-01-26T16:32:56.808Z,20.81
2023-01-26T16:36:01.026Z,20.82
2023-01-26T16:39:03.970Z,20.80
2023-01-26T16:42:06.947Z,20.82
2023-01-26T16:45:16.524Z,20.83
2023-01-26T16:48:19.397Z,20.83
2023-01-26T16:51:26.333Z,20.83
2023-01-26T16:54:29.105Z,20.83
2023-01-26T16:57:32.005Z,20.84
2023-01-26T17:00:35.030Z,20.84
2023-01-26T17:03:37.940Z,20.84
2023-01-26T17:06:42.151Z,20.85
2023-01-26T17:09:45.238Z,20.86
2023-01-26T17:12:48.122Z,20.85
2023-01-26T17:15:51.374Z,20.84
2023-01-26T17:18:54.363Z,20.86
2023-01-26T17:21:58.822Z,20.86
2023-01-26T17:25:01.717Z,20.86
2023-01-26T17:28:04.755Z,20.87
2023-01-26T17:31:11.124Z,20.87
2023-01-26T17:34:14.027Z,20.87
2023-01-26T17:37:18.339Z,20.87
2023-01-26T17:40:21.322Z,20.86
2023-01-26T17:43:24.410Z,20.87
2023-01-26T17:46:27.271Z,20.86
2023-01-26T17:49:30.382Z,20.86
2023-01-26T17:52:36.487Z,20.85
2023-01-26T17:55:39.340Z,20.85
2023-01-26T17:58:42.600Z,20.86
2023-01-26T18:01:45.482Z,20.86
2023-01-26T18:04:48.741Z,20.87
2023-01-26T18:07:53.152Z,20.88
2023-01-26T18:10:59.981Z,20.88
2023-01-26T18:14:03.274Z,20.88
2023-01-26T18:17:06.195Z,20.87
2023-01-26T18:20:10.319Z,20.88
2023-01-26T18:23:14.620Z,20.88
2023-01-26T18:26:19.154Z,20.88
2023-01-26T18:29:21.996Z,20.88
2023-01-26T18:32:25.302Z,20.88
2023-01-26T18:35:28.133Z,20.89
2023-01-26T18:38:32.254Z,20.91
2023-01-26T18:41:35.285Z,20.91
2023-01-26T18:44:38.177Z,20.91
2023-01-26T18:47:41.147Z,20.90
2023-01-26T18:50:48.809Z,20.90
2023-01-26T18:53:53.698Z,20.92
2023-01-26T18:56:56.983Z,20.92
2023-01-26T18:59:59.861Z,20.93
2023-01-26T19:03:02.738Z,20.91
2023-01-26T19:06:06.982Z,20.91
2023-01-26T19:09:11.718Z,20.92
2023-01-26T19:12:14.589Z,20.91
2023-01-26T19:15:17.607Z,20.90
2023-01-26T19:18:20.538Z,20.93
2023-01-26T19:21:25.179Z,20.91
2023-01-26T19:24:29.362Z,20.93
2023-01-26T19:27:32.683Z,20.93
2023-01-26T19:30:36.006Z,20.93
2023-01-26T19:33:39.180Z,20.93
2023-01-26T19:36:42.033Z,20.93
2023-01-26T19:39:46.609Z,20.93
2023-01-26T19:42:49.757Z,20.93
2023-01-26T19:45:54.658Z,20.92
2023-01-26T19:48:57.677Z,20.91
2023-01-26T19:52:00.537Z,20.92
2023-01-26T19:55:05.112Z,20.92
2023-01-26T19:58:09.436Z,20.93
2023-01-26T20:01:13.816Z,20.94
2023-01-26T20:04:16.866Z,20.94
2023-01-26T20:07:19.723Z,20.93
2023-01-26T20:10:23.951Z,20.93
2023-01-26T20:13:26.917Z,20.94
2023-01-26T20:16:30.730Z,20.93
2023-01-26T20:19:35.173Z,20.92
2023-01-26T20:22:38.071Z,20.94
2023-01-26T20:25:42.373Z,20.93
2023-01-26T20:28:46.194Z,20.93
2023-01-26T20:31:50.095Z,20.94
2023-01-26T20:34:53.426Z,20.94
2023-01-26T20:37:56.412Z,20.94
2023-01-26T20:41:00.661Z,20.97
2023-01-26T20:44:06.202Z,20.96
2023-01-26T20:47:09.266Z,20.96
2023-01-26T20:50:13.419Z,20.96
2023-01-26T20:53:16.527Z,20.97
2023-01-26T20:56:22.745Z,20.97
2023-01-26T20:59:25.717Z,20.96
2023-01-26T21:02:28.660Z,20.96
2023-01-26T21:05:31.674Z,20.96
2023-01-26T21:08:36.634Z,20.97
2023-01-26T21:11:40.850Z,20.97
2023-01-26T21:14:45.424Z,20.97
2023-01-26T21:17:49.450Z,20.97
2023-01-26T21:20:57.314Z,20.98
2023-01-26T21:24:00.295Z,20.97
2023-01-26T21:27:06.708Z,20.99
2023-01-26T21:30:11.286Z,20.99
2023-01-26T21:33:14.435Z,20.99
2023-01-26T21:36:19.047Z,20.99
2023-01-26T21:39:22.295Z,20.98
2023-01-26T21:42:26.662Z,20.98
2023-01-26T21:45:47.185Z,20.97
2023-01-26T21:48:50.108Z,20.98
2023-01-26T21:52:11.597Z,20.98
2023-01-26T21:55:14.545Z,20.99
2023-01-26T21:58:36.127Z,20.99
2023-01-26T22:01:40.608Z,20.99
2023-01-26T22:04:43.509Z,20.99
2023-01-26T22:07:47.263Z,20.99
2023-01-26T22:10:54.463Z,20.99
2023-01-26T22:13:58.817Z,20.99
2023-01-26T22:17:01.666Z,20.99
2023-01-26T22:20:05.239Z,20.97
2023-01-26T22:23:08.123Z,20.95
2023-01-26T22:26:13.093Z,20.94
2023-01-26T22:29:17.712Z,20.96
2023-01-26T22:32:20.546Z,21.04
2023-01-26T22:35:23.546Z,21.12
2023-01-26T22:38:26.390Z,21.22
2023-01-26T22:41:30.408Z,21.31
2023-01-26T22:44:36.515Z,21.42
2023-01-26T22:47:40.987Z,21.52
2023-01-26T22:50:43.920Z,21.61
2023-01-26T22:53:46.871Z,21.68
2023-01-26T22:56:49.747Z,21.72
2023-01-26T22:59:53.919Z,21.75
2023-01-26T23:02:56.799Z,21.75
2023-01-26T23:06:00.775Z,21.72
2023-01-26T23:09:04.743Z,21.70
2023-01-26T23:12:08.297Z,21.67
2023-01-26T23:15:12.761Z,21.64
2023-01-26T23:18:15.582Z,21.59
2023-01-26T23:21:18.563Z,21.56
2023-01-26T23:24:21.582Z,21.53
2023-01-26T23:30:28.940Z,21.46
2023-01-26T23:33:33.604Z,21.42
2023-01-26T23:36:36.423Z,21.41
2023-01-26T23:39:39.250Z,21.38
2023-01-26T23:43:00.332Z,21.37
2023-01-26T23:46:08.055Z,21.35
2023-01-26T23:49:10.942Z,21.32
2023-01-26T23:52:13.894Z,21.30
2023-01-26T23:55:16.971Z,21.30
2023-01-26T23:58:20.539Z,21.30
